createdAt,value
2022-08-26T00:01:56.932Z,25.10
2022-08-26T00:04:25.759Z,25.09
2022-08-26T00:06:55.798Z,25.09
2022-08-26T00:09:25.065Z,25.10
2022-08-26T00:11:54.134Z,25.08
2022-08-26T00:14:27.172Z,25.08
2022-08-26T00:16:57.605Z,25.06
2022-08-26T00:19:25.163Z,25.06
2022-08-26T00:21:52.457Z,25.06
2022-08-26T00:24:21.890Z,25.07
2022-08-26T00:26:51.568Z,25.04
2022-08-26T00:29:21.320Z,25.03
2022-08-26T00:31:50.063Z,25.00
2022-08-26T00:34:19.634Z,24.99
2022-08-26T00:36:51.839Z,25.02
2022-08-26T00:39:20.405Z,25.02
2022-08-26T00:41:48.366Z,25.03
2022-08-26T00:44:15.663Z,25.04
2022-08-26T00:46:47.280Z,25.02
2022-08-26T00:49:22.140Z,24.99
2022-08-26T00:51:59.082Z,24.95
2022-08-26T00:54:32.720Z,24.89
2022-08-26T00:57:08.715Z,24.85
2022-08-26T00:59:47.677Z,24.84
2022-08-26T01:02:20.046Z,24.85
2022-08-26T01:04:55.758Z,24.87
2022-08-26T01:07:30.286Z,24.86
2022-08-26T01:10:01.458Z,24.84
2022-08-26T01:12:33.797Z,24.85
2022-08-26T01:15:02.383Z,24.86
2022-08-26T01:17:30.130Z,24.84
2022-08-26T01:20:24.413Z,24.85
2022-08-26T01:23:05.458Z,24.84
2022-08-26T01:25:35.094Z,24.84
2022-08-26T01:28:06.990Z,24.81
2022-08-26T01:30:35.818Z,24.80
2022-08-26T01:33:07.010Z,24.77
2022-08-26T01:35:34.654Z,24.75
2022-08-26T01:38:02.484Z,24.76
2022-08-26T01:40:32.859Z,24.75
2022-08-26T01:43:02.666Z,24.73
2022-08-26T01:45:33.498Z,24.70
2022-08-26T01:48:05.078Z,24.68
2022-08-26T01:50:35.482Z,24.68
2022-08-26T01:53:07.836Z,24.67
2022-08-26T01:55:39.465Z,24.67
2022-08-26T01:58:14.028Z,24.67
2022-08-26T02:00:41.516Z,24.66
2022-08-26T02:03:18.272Z,24.63
2022-08-26T02:05:58.250Z,24.60
2022-08-26T02:08:39.158Z,24.56
2022-08-26T02:11:07.658Z,24.54
2022-08-26T02:13:40.107Z,24.53
2022-08-26T02:16:08.917Z,24.57
2022-08-26T02:18:40.540Z,24.62
2022-08-26T02:21:08.791Z,24.65
2022-08-26T02:23:36.272Z,24.63
2022-08-26T02:26:19.980Z,24.61
2022-08-26T02:28:53.568Z,24.58
2022-08-26T02:31:20.867Z,24.57
2022-08-26T02:33:48.135Z,24.60
2022-08-26T02:36:24.081Z,24.61
2022-08-26T02:38:56.085Z,24.57
2022-08-26T02:41:23.863Z,24.55
2022-08-26T02:43:51.956Z,24.54
2022-08-26T02:46:21.583Z,24.54
2022-08-26T02:48:55.521Z,24.52
2022-08-26T02:51:22.721Z,24.51
2022-08-26T02:53:50.218Z,24.49
2022-08-26T02:56:18.662Z,24.46
2022-08-26T02:58:46.167Z,24.45
2022-08-26T03:01:28.399Z,24.46
2022-08-26T03:03:57.027Z,24.47
2022-08-26T03:06:25.006Z,24.47
2022-08-26T03:08:53.486Z,24.47
2022-08-26T03:11:20.707Z,24.45
2022-08-26T03:13:49.102Z,24.46
2022-08-26T03:16:17.087Z,24.47
2022-08-26T03:18:52.059Z,24.48
2022-08-26T03:21:20.200Z,24.48
2022-08-26T03:23:49.946Z,24.46
2022-08-26T03:26:17.368Z,24.41
2022-08-26T03:29:03.160Z,24.37
2022-08-26T03:31:30.614Z,24.33
2022-08-26T03:33:59.869Z,24.34
2022-08-26T03:36:30.007Z,24.32
2022-08-26T03:38:58.746Z,24.34
2022-08-26T03:41:26.390Z,24.35
2022-08-26T03:43:56.449Z,24.32
2022-08-26T03:46:25.689Z,24.33
2022-08-26T03:48:53.908Z,24.33
2022-08-26T03:51:21.341Z,24.31
2022-08-26T03:53:48.474Z,24.30
2022-08-26T03:56:17.229Z,24.31
2022-08-26T03:58:44.879Z,24.32
2022-08-26T04:01:16.126Z,24.31
2022-08-26T04:04:00.308Z,24.33
2022-08-26T04:06:43.171Z,24.30
2022-08-26T04:09:20.080Z,24.31
2022-08-26T04:11:50.605Z,24.30
2022-08-26T04:14:21.097Z,24.27
2022-08-26T04:16:50.019Z,24.28
2022-08-26T04:19:19.227Z,24.25
2022-08-26T04:21:49.170Z,24.24
2022-08-26T04:24:17.639Z,24.25
2022-08-26T04:26:45.171Z,24.26
2022-08-26T04:29:15.707Z,24.27
2022-08-26T04:31:43.113Z,24.29
2022-08-26T04:34:11.247Z,24.31
2022-08-26T04:36:41.907Z,24.37
2022-08-26T04:39:16.962Z,24.40
2022-08-26T04:41:47.477Z,24.46
2022-08-26T04:44:16.638Z,24.48
2022-08-26T04:46:44.747Z,24.56
2022-08-26T04:49:13.007Z,24.66
2022-08-26T04:51:40.674Z,24.76
2022-08-26T04:54:08.874Z,25.00
2022-08-26T04:56:39.347Z,25.65
2022-08-26T04:59:16.491Z,26.59
2022-08-26T05:01:53.476Z,27.60
2022-08-26T05:04:22.272Z,28.44
2022-08-26T05:06:49.891Z,29.25
2022-08-26T05:09:18.809Z,30.03
2022-08-26T05:11:48.508Z,30.75
2022-08-26T05:14:20.876Z,31.27
2022-08-26T05:16:48.085Z,31.52
2022-08-26T05:19:19.108Z,32.16
2022-08-26T05:21:48.623Z,32.68
2022-08-26T05:24:17.001Z,33.26
2022-08-26T05:26:48.150Z,33.68
2022-08-26T05:29:16.740Z,34.25
2022-08-26T05:31:44.213Z,34.65
2022-08-26T05:34:11.423Z,35.22
2022-08-26T05:36:39.345Z,35.35
2022-08-26T05:39:07.459Z,35.54
2022-08-26T05:41:38.743Z,35.40
2022-08-26T05:44:09.116Z,35.51
2022-08-26T05:46:37.644Z,35.96
2022-08-26T05:49:12.203Z,36.52
2022-08-26T05:51:42.372Z,36.82
2022-08-26T05:54:10.496Z,37.18
2022-08-26T05:56:39.199Z,36.52
2022-08-26T05:59:10.896Z,37.00
2022-08-26T06:01:43.775Z,37.60
2022-08-26T06:04:11.747Z,37.79
2022-08-26T06:06:42.834Z,37.92
2022-08-26T06:09:11.426Z,37.67
2022-08-26T06:11:40.391Z,38.06
2022-08-26T06:14:08.639Z,37.84
2022-08-26T06:16:40.868Z,37.57
2022-08-26T06:19:11.486Z,37.62
2022-08-26T06:21:42.282Z,37.53
2022-08-26T06:24:31.959Z,37.46
2022-08-26T06:27:02.995Z,36.93
2022-08-26T06:29:33.860Z,37.12
2022-08-26T06:32:02.097Z,37.32
2022-08-26T06:34:30.624Z,37.49
2022-08-26T06:37:02.713Z,37.70
2022-08-26T06:39:31.568Z,38.25
2022-08-26T06:42:00.254Z,38.27
2022-08-26T06:44:28.119Z,37.80
2022-08-26T06:46:55.595Z,37.21
2022-08-26T06:49:26.616Z,36.65
2022-08-26T06:51:58.692Z,37.40
2022-08-26T06:54:27.877Z,37.39
2022-08-26T06:56:57.070Z,37.88
2022-08-26T06:59:25.185Z,37.33
2022-08-26T07:01:53.304Z,37.01
2022-08-26T07:04:23.360Z,37.62
2022-08-26T07:06:52.623Z,37.50
2022-08-26T07:09:23.106Z,37.52
2022-08-26T07:11:51.622Z,37.99
2022-08-26T07:14:21.304Z,38.04
2022-08-26T07:16:52.500Z,37.48
2022-08-26T07:19:29.882Z,37.11
2022-08-26T07:22:05.240Z,37.49
2022-08-26T07:24:35.120Z,36.96
2022-08-26T07:27:05.869Z,36.68
2022-08-26T07:29:35.028Z,37.17
2022-08-26T07:32:02.866Z,37.24
2022-08-26T07:34:33.424Z,35.41
2022-08-26T07:37:01.120Z,35.88
2022-08-26T07:39:31.544Z,35.58
2022-08-26T07:42:07.701Z,35.18
2022-08-26T07:44:37.599Z,34.30
2022-08-26T07:47:19.352Z,33.98
2022-08-26T07:49:55.359Z,33.38
2022-08-26T07:52:26.181Z,33.32
2022-08-26T07:54:55.623Z,33.98
2022-08-26T07:57:24.251Z,34.41
2022-08-26T07:59:54.117Z,34.98
2022-08-26T08:02:24.039Z,35.12
2022-08-26T08:04:52.016Z,34.89
2022-08-26T08:07:19.312Z,35.40
2022-08-26T08:09:49.714Z,35.94
2022-08-26T08:12:18.510Z,35.35
2022-08-26T08:14:47.226Z,35.64
2022-08-26T08:17:16.308Z,35.87
2022-08-26T08:19:43.860Z,36.15
2022-08-26T08:22:17.758Z,36.24
2022-08-26T08:24:50.034Z,35.68
2022-08-26T08:27:23.801Z,35.57
2022-08-26T08:29:55.027Z,34.85
2022-08-26T08:32:23.716Z,35.11
2022-08-26T08:34:51.086Z,35.30
2022-08-26T08:37:18.893Z,35.39
2022-08-26T08:39:46.178Z,34.58
2022-08-26T08:42:28.177Z,33.60
2022-08-26T08:44:58.862Z,32.51
2022-08-26T08:47:31.339Z,31.02
2022-08-26T08:50:30.209Z,30.87
2022-08-26T08:53:26.526Z,30.31
2022-08-26T08:56:10.588Z,30.29
2022-08-26T08:58:59.729Z,30.00
2022-08-26T09:02:05.017Z,30.04
2022-08-26T09:04:54.550Z,30.09
2022-08-26T09:07:37.542Z,30.14
2022-08-26T09:10:18.916Z,30.15
2022-08-26T09:12:48.341Z,29.93
2022-08-26T09:15:30.194Z,29.71
2022-08-26T09:18:32.027Z,29.73
2022-08-26T09:21:12.323Z,29.54
2022-08-26T09:23:42.979Z,29.44
2022-08-26T09:26:42.584Z,29.47
2022-08-26T09:31:49.138Z,29.54
2022-08-26T09:34:21.335Z,29.67
2022-08-26T09:36:53.711Z,29.62
2022-08-26T09:39:24.469Z,29.57
2022-08-26T09:42:20.933Z,29.57
2022-08-26T09:45:02.068Z,29.74
2022-08-26T09:47:39.786Z,29.69
2022-08-26T09:50:14.681Z,29.76
2022-08-26T09:52:42.716Z,29.64
2022-08-26T09:55:16.339Z,29.64
2022-08-26T09:57:51.203Z,29.53
2022-08-26T10:00:34.251Z,29.43
2022-08-26T10:03:12.483Z,29.44
2022-08-26T10:05:56.609Z,29.62
2022-08-26T10:08:26.534Z,29.53
2022-08-26T10:10:56.511Z,29.57
2022-08-26T10:13:56.830Z,29.73
2022-08-26T10:16:56.702Z,29.60
2022-08-26T10:19:55.516Z,30.04
2022-08-26T10:22:30.037Z,29.72
2022-08-26T10:25:02.773Z,29.57
2022-08-26T10:27:31.455Z,29.46
2022-08-26T10:30:08.219Z,29.50
2022-08-26T10:33:02.404Z,29.79
2022-08-26T10:35:32.125Z,29.86
2022-08-26T10:38:08.937Z,30.00
2022-08-26T10:40:49.142Z,30.27
2022-08-26T10:43:43.578Z,30.31
2022-08-26T10:46:19.948Z,30.34
2022-08-26T10:48:54.215Z,30.35
2022-08-26T10:51:31.621Z,30.50
2022-08-26T10:54:08.562Z,30.11
2022-08-26T10:57:30.349Z,30.29
2022-08-26T11:00:30.263Z,30.27
2022-08-26T11:03:24.991Z,30.71
2022-08-26T11:06:19.830Z,30.67
2022-08-26T11:08:49.990Z,30.91
2022-08-26T11:11:38.999Z,30.43
2022-08-26T11:14:07.930Z,30.51
2022-08-26T11:16:44.485Z,30.19
2022-08-26T11:20:00.860Z,30.04
2022-08-26T11:22:47.397Z,29.55
2022-08-26T11:25:19.841Z,29.37
2022-08-26T11:27:52.810Z,29.43
2022-08-26T11:30:20.691Z,29.90
2022-08-26T11:32:52.250Z,29.81
2022-08-26T11:35:24.485Z,29.99
2022-08-26T11:37:57.480Z,30.04
2022-08-26T11:40:32.653Z,29.86
2022-08-26T11:43:07.718Z,29.78
2022-08-26T11:45:40.107Z,29.46
2022-08-26T11:48:29.891Z,29.63
2022-08-26T11:51:04.857Z,29.67
2022-08-26T11:53:34.894Z,29.44
2022-08-26T11:56:07.135Z,29.31
2022-08-26T11:58:35.483Z,29.13
2022-08-26T12:01:09.935Z,29.15
2022-08-26T12:03:44.734Z,29.06
2022-08-26T12:06:28.005Z,28.80
2022-08-26T12:09:00.357Z,28.86
2022-08-26T12:11:31.767Z,28.84
2022-08-26T12:14:02.565Z,28.86
2022-08-26T12:16:37.171Z,28.88
2022-08-26T12:19:32.677Z,29.01
2022-08-26T12:22:25.122Z,29.06
2022-08-26T12:24:59.633Z,29.20
2022-08-26T12:27:32.003Z,29.46
2022-08-26T12:30:12.460Z,29.55
2022-08-26T12:32:56.539Z,29.76
2022-08-26T12:35:29.529Z,29.93
2022-08-26T12:37:57.862Z,29.70
2022-08-26T12:40:35.684Z,29.82
2022-08-26T12:43:06.339Z,29.88
2022-08-26T12:45:44.346Z,29.61
2022-08-26T12:48:24.446Z,29.61
2022-08-26T12:50:52.726Z,29.60
2022-08-26T12:53:32.399Z,29.82
2022-08-26T12:56:17.766Z,30.02
2022-08-26T12:58:45.474Z,30.12
2022-08-26T13:01:13.340Z,29.74
2022-08-26T13:03:44.688Z,30.13
2022-08-26T13:06:20.928Z,30.34
2022-08-26T13:09:06.669Z,30.11
2022-08-26T13:11:35.905Z,29.71
2022-08-26T13:14:08.431Z,29.54
2022-08-26T13:16:37.178Z,29.40
2022-08-26T13:19:10.201Z,29.08
2022-08-26T13:21:44.061Z,28.87
2022-08-26T13:24:36.787Z,29.08
2022-08-26T13:27:06.383Z,29.45
2022-08-26T13:29:34.080Z,29.70
2022-08-26T13:32:01.886Z,29.43
2022-08-26T13:34:30.737Z,29.14
2022-08-26T13:36:58.650Z,29.10
2022-08-26T13:39:26.890Z,29.04
2022-08-26T13:41:54.706Z,28.90
2022-08-26T13:44:22.184Z,28.75
2022-08-26T13:46:49.724Z,28.78
2022-08-26T13:49:16.877Z,28.80
2022-08-26T13:51:44.311Z,28.65
2022-08-26T13:54:11.545Z,28.68
2022-08-26T13:56:39.056Z,28.87
2022-08-26T13:59:07.125Z,28.97
2022-08-26T14:01:35.541Z,28.92
2022-08-26T14:04:03.504Z,28.92
2022-08-26T14:06:30.715Z,28.88
2022-08-26T14:08:58.781Z,28.73
2022-08-26T14:11:26.345Z,28.68
2022-08-26T14:13:53.670Z,28.64
2022-08-26T14:16:26.070Z,28.54
2022-08-26T14:18:54.217Z,28.44
2022-08-26T14:21:21.898Z,28.46
2022-08-26T14:23:53.022Z,28.37
2022-08-26T14:26:28.784Z,28.34
2022-08-26T14:29:04.042Z,28.40
2022-08-26T14:31:33.318Z,28.44
2022-08-26T14:34:07.313Z,28.50
2022-08-26T14:36:35.445Z,28.45
2022-08-26T14:39:06.729Z,28.38
2022-08-26T14:41:38.508Z,28.29
2022-08-26T14:44:12.655Z,28.24
2022-08-26T14:46:53.426Z,28.19
2022-08-26T14:49:23.287Z,28.22
2022-08-26T14:51:50.709Z,28.21
2022-08-26T14:54:19.429Z,28.21
2022-08-26T14:56:54.274Z,28.22
2022-08-26T14:59:28.248Z,28.20
2022-08-26T15:01:57.018Z,28.18
2022-08-26T15:04:25.455Z,28.20
2022-08-26T15:06:54.818Z,28.23
2022-08-26T15:09:23.209Z,28.26
2022-08-26T15:11:51.416Z,28.16
2022-08-26T15:14:20.162Z,28.03
2022-08-26T15:16:53.227Z,28.01
2022-08-26T15:19:21.706Z,28.07
2022-08-26T15:21:50.061Z,28.10
2022-08-26T15:24:20.733Z,28.16
2022-08-26T15:26:48.422Z,28.20
2022-08-26T15:29:15.835Z,28.18
2022-08-26T15:31:43.333Z,28.18
2022-08-26T15:34:16.481Z,28.19
2022-08-26T15:36:46.196Z,28.21
2022-08-26T15:39:15.055Z,28.27
2022-08-26T15:41:42.410Z,28.30
2022-08-26T15:44:11.395Z,28.40
2022-08-26T15:46:39.449Z,28.40
2022-08-26T15:49:08.010Z,28.35
2022-08-26T15:51:45.583Z,28.29
2022-08-26T15:54:14.497Z,28.25
2022-08-26T15:56:43.436Z,28.16
2022-08-26T15:59:11.997Z,28.09
2022-08-26T16:01:40.128Z,28.10
2022-08-26T16:04:08.474Z,28.14
2022-08-26T16:06:38.307Z,28.14
2022-08-26T16:09:07.400Z,28.12
2022-08-26T16:11:36.289Z,28.17
2022-08-26T16:14:04.841Z,28.18
2022-08-26T16:16:32.515Z,28.20
2022-08-26T16:19:03.265Z,28.19
2022-08-26T16:21:35.058Z,28.17
2022-08-26T16:24:03.468Z,28.13
2022-08-26T16:26:33.473Z,28.11
2022-08-26T16:29:07.922Z,28.03
2022-08-26T16:31:37.425Z,27.99
2022-08-26T16:34:07.063Z,27.99
2022-08-26T16:36:35.707Z,27.96
2022-08-26T16:39:04.260Z,27.98
2022-08-26T16:41:32.337Z,27.94
2022-08-26T16:43:59.733Z,27.94
2022-08-26T16:46:28.240Z,27.97
2022-08-26T16:48:57.143Z,27.96
2022-08-26T16:51:29.685Z,27.93
2022-08-26T16:53:57.676Z,27.91
2022-08-26T16:56:34.225Z,27.86
2022-08-26T16:59:03.719Z,27.82
2022-08-26T17:01:30.982Z,27.83
2022-08-26T17:03:58.259Z,27.82
2022-08-26T17:06:25.531Z,27.81
2022-08-26T17:08:54.336Z,27.78
2022-08-26T17:11:21.659Z,27.77
2022-08-26T17:13:48.907Z,27.75
2022-08-26T17:16:16.532Z,27.75
2022-08-26T17:18:44.017Z,27.72
2022-08-26T17:21:13.209Z,27.71
2022-08-26T17:23:41.746Z,27.69
2022-08-26T17:26:11.164Z,27.67
2022-08-26T17:28:39.229Z,27.64
2022-08-26T17:31:07.627Z,27.62
2022-08-26T17:33:34.832Z,27.54
2022-08-26T17:36:02.390Z,27.48
2022-08-26T17:38:29.581Z,27.44
2022-08-26T17:40:57.822Z,27.41
2022-08-26T17:43:28.360Z,27.39
2022-08-26T17:46:07.488Z,27.36
2022-08-26T17:48:36.981Z,27.35
2022-08-26T17:51:13.488Z,27.34
2022-08-26T17:53:41.593Z,27.31
2022-08-26T17:56:11.225Z,27.26
2022-08-26T17:58:39.115Z,27.26
2022-08-26T18:01:07.133Z,27.20
2022-08-26T18:03:37.351Z,27.22
2022-08-26T18:06:11.668Z,27.20
2022-08-26T18:08:40.519Z,27.17
2022-08-26T18:11:09.880Z,27.18
2022-08-26T18:13:37.654Z,27.17
2022-08-26T18:16:13.433Z,27.15
2022-08-26T18:18:40.842Z,27.11
2022-08-26T18:21:16.990Z,27.08
2022-08-26T18:23:45.972Z,27.09
2022-08-26T18:26:29.251Z,27.07
2022-08-26T18:28:56.849Z,27.03
2022-08-26T18:31:24.244Z,27.01
2022-08-26T18:33:52.185Z,27.00
2022-08-26T18:36:23.173Z,27.01
2022-08-26T18:38:51.909Z,27.02
2022-08-26T18:41:22.006Z,27.02
2022-08-26T18:43:50.993Z,27.01
2022-08-26T18:46:19.331Z,26.95
2022-08-26T18:48:49.066Z,26.96
2022-08-26T18:51:21.414Z,26.94
2022-08-26T18:53:48.838Z,26.88
2022-08-26T18:56:18.538Z,26.86
2022-08-26T18:58:46.346Z,26.85
2022-08-26T19:01:14.197Z,26.84
2022-08-26T19:03:41.438Z,26.81
2022-08-26T19:06:12.847Z,26.78
2022-08-26T19:08:44.599Z,26.78
2022-08-26T19:11:15.506Z,26.76
2022-08-26T19:13:44.141Z,26.78
2022-08-26T19:16:18.440Z,26.80
2022-08-26T19:18:45.812Z,26.80
2022-08-26T19:21:14.077Z,26.79
2022-08-26T19:23:41.356Z,26.80
2022-08-26T19:26:11.215Z,26.78
2022-08-26T19:28:42.093Z,26.80
2022-08-26T19:31:12.666Z,26.75
2022-08-26T19:33:42.192Z,26.73
2022-08-26T19:36:15.426Z,26.74
2022-08-26T19:38:45.531Z,26.73
2022-08-26T19:41:19.041Z,26.73
2022-08-26T19:43:47.095Z,26.72
2022-08-26T19:46:22.361Z,26.67
2022-08-26T19:48:54.103Z,26.64
2022-08-26T19:51:27.135Z,26.70
2022-08-26T19:53:56.818Z,26.67
2022-08-26T19:56:24.592Z,26.66
2022-08-26T19:58:52.300Z,26.66
2022-08-26T20:01:19.851Z,26.70
2022-08-26T20:03:47.841Z,26.70
2022-08-26T20:06:16.787Z,26.72
2022-08-26T20:08:45.398Z,26.72
2022-08-26T20:11:17.525Z,26.68
2022-08-26T20:13:47.072Z,26.65
2022-08-26T20:16:17.010Z,26.66
2022-08-26T20:19:04.241Z,26.62
2022-08-26T20:21:35.897Z,26.59
2022-08-26T20:24:11.198Z,26.57
2022-08-26T20:26:41.693Z,26.52
2022-08-26T20:29:12.476Z,26.49
2022-08-26T20:31:40.198Z,26.47
2022-08-26T20:34:07.795Z,26.43
2022-08-26T20:36:35.489Z,26.40
2022-08-26T20:39:04.651Z,26.35
2022-08-26T20:41:32.365Z,26.33
2022-08-26T20:44:00.060Z,26.30
2022-08-26T20:46:27.908Z,26.29
2022-08-26T20:48:55.633Z,26.29
2022-08-26T20:51:26.163Z,26.25
2022-08-26T20:53:53.654Z,26.22
2022-08-26T20:56:24.479Z,26.20
2022-08-26T20:58:54.497Z,26.19
2022-08-26T21:01:28.667Z,26.19
2022-08-26T21:03:57.365Z,26.21
2022-08-26T21:06:26.105Z,26.23
2022-08-26T21:08:54.067Z,26.23
2022-08-26T21:11:22.770Z,26.23
2022-08-26T21:14:07.022Z,26.23
2022-08-26T21:16:39.508Z,26.20
2022-08-26T21:19:09.510Z,26.17
2022-08-26T21:21:36.809Z,26.17
2022-08-26T21:24:04.569Z,26.15
2022-08-26T21:26:31.908Z,26.14
2022-08-26T21:29:01.278Z,26.14
2022-08-26T21:31:30.095Z,26.12
2022-08-26T21:33:57.316Z,26.10
2022-08-26T21:36:24.761Z,26.09
2022-08-26T21:38:51.998Z,26.09
2022-08-26T21:41:22.286Z,26.08
2022-08-26T21:43:51.090Z,26.07
2022-08-26T21:46:22.227Z,26.05
2022-08-26T21:48:59.517Z,26.05
2022-08-26T21:51:32.623Z,26.03
2022-08-26T21:54:01.577Z,26.02
2022-08-26T21:56:32.461Z,26.01
2022-08-26T21:59:01.540Z,26.03
2022-08-26T22:01:34.067Z,26.04
2022-08-26T22:04:04.272Z,26.06
2022-08-26T22:06:33.285Z,26.04
2022-08-26T22:09:00.795Z,26.02
2022-08-26T22:11:29.212Z,26.01
2022-08-26T22:13:57.202Z,26.00
2022-08-26T22:16:27.031Z,26.00
2022-08-26T22:18:55.440Z,26.00
2022-08-26T22:21:24.626Z,25.99
2022-08-26T22:23:56.237Z,25.98
2022-08-26T22:26:29.051Z,25.97
2022-08-26T22:28:58.989Z,26.01
2022-08-26T22:31:37.175Z,25.99
2022-08-26T22:34:09.564Z,25.99
2022-08-26T22:36:43.522Z,25.98
2022-08-26T22:39:15.907Z,25.98
2022-08-26T22:41:44.400Z,25.97
2022-08-26T22:44:12.538Z,25.98
2022-08-26T22:46:41.593Z,25.97
2022-08-26T22:49:11.176Z,25.96
2022-08-26T22:51:38.908Z,25.94
2022-08-26T22:54:06.970Z,25.93
2022-08-26T22:56:35.175Z,25.91
2022-08-26T22:59:02.610Z,25.91
2022-08-26T23:01:30.118Z,25.91
2022-08-26T23:03:57.362Z,25.90
2022-08-26T23:06:24.657Z,25.91
2022-08-26T23:08:53.318Z,25.90
2022-08-26T23:11:20.751Z,25.92
2022-08-26T23:13:48.001Z,25.90
2022-08-26T23:16:15.323Z,25.89
2022-08-26T23:18:42.715Z,25.87
2022-08-26T23:21:10.920Z,25.86
2022-08-26T23:23:38.673Z,25.86
2022-08-26T23:26:08.012Z,25.84
2022-08-26T23:28:38.584Z,25.82
2022-08-26T23:31:06.362Z,25.81
2022-08-26T23:33:53.216Z,25.81
2022-08-26T23:36:22.742Z,25.78
2022-08-26T23:38:52.879Z,25.75
2022-08-26T23:41:22.880Z,25.74
2022-08-26T23:43:51.790Z,25.73
2022-08-26T23:46:20.029Z,25.72
2022-08-26T23:48:48.022Z,25.69
2022-08-26T23:51:34.716Z,25.67
2022-08-26T23:54:02.131Z,25.66
2022-08-26T23:56:29.490Z,25.66
2022-08-26T23:58:57.266Z,25.67
